sensor_id;sensor_type;location;lat;lon;timestamp;pressure;altitude;pressure_sealevel;temperature;humidity
24558;BME280;12726;49.148;8.582;2023-01-31T00:01:11;101424.06;;;2.75;100.00
24558;BME280;12726;49.148;8.582;2023-01-31T00:03:59;101425.47;;;2.80;100.00
24558;BME280;12726;49.148;8.582;2023-01-31T00:06:47;101418.75;;;2.75;100.00
24558;BME280;12726;49.148;8.582;2023-01-31T00:09:36;101412.31;;;2.78;100.00
24558;BME280;12726;49.148;8.582;2023-01-31T00:12:21;101421.28;;;2.77;100.00
24558;BME280;12726;49.148;8.582;2023-01-31T00:15:08;101421.13;;;2.69;100.00
24558;BME280;12726;49.148;8.582;2023-01-31T00:17:53;101417.19;;;2.73;100.00
24558;BME280;12726;49.148;8.582;2023-01-31T00:20:38;101417.91;;;2.75;100.00
24558;BME280;12726;49.148;8.582;2023-01-31T00:23:24;101429.41;;;2.75;100.00
24558;BME280;12726;49.148;8.582;2023-01-31T00:26:13;101414.28;;;2.76;100.00
24558;BME280;12726;49.148;8.582;2023-01-31T00:29:00;101430.06;;;2.78;100.00
24558;BME280;12726;49.148;8.582;2023-01-31T00:31:46;101427.75;;;2.84;100.00
24558;BME280;12726;49.148;8.582;2023-01-31T00:34:31;101426.91;;;2.84;100.00
24558;BME280;12726;49.148;8.582;2023-01-31T00:37:17;101429.38;;;2.85;100.00
24558;BME280;12726;49.148;8.582;2023-01-31T00:40:03;101426.31;;;2.80;100.00
24558;BME280;12726;49.148;8.582;2023-01-31T00:42:50;101438.22;;;2.86;100.00
24558;BME280;12726;49.148;8.582;2023-01-31T00:45:35;101424.06;;;2.85;100.00
24558;BME280;12726;49.148;8.582;2023-01-31T00:48:20;101421.00;;;2.90;100.00
24558;BME280;12726;49.148;8.582;2023-01-31T00:51:06;101418.63;;;2.87;100.00
24558;BME280;12726;49.148;8.582;2023-01-31T00:53:52;101418.50;;;2.88;100.00
24558;BME280;12726;49.148;8.582;2023-01-31T00:56:37;101412.19;;;2.89;100.00
24558;BME280;12726;49.148;8.582;2023-01-31T00:59:24;101422.69;;;2.91;100.00
24558;BME280;12726;49.148;8.582;2023-01-31T01:02:09;101413.44;;;2.85;100.00
24558;BME280;12726;49.148;8.582;2023-01-31T01:04:55;101419.19;;;2.90;100.00
24558;BME280;12726;49.148;8.582;2023-01-31T01:07:40;101409.53;;;2.89;100.00
24558;BME280;12726;49.148;8.582;2023-01-31T01:10:25;101411.63;;;2.86;100.00
24558;BME280;12726;49.148;8.582;2023-01-31T01:13:11;101414.16;;;2.87;100.00
24558;BME280;12726;49.148;8.582;2023-01-31T01:16:03;101409.81;;;2.86;100.00
24558;BME280;12726;49.148;8.582;2023-01-31T01:18:49;101409.38;;;2.81;100.00
24558;BME280;12726;49.148;8.582;2023-01-31T01:21:35;101412.72;;;2.73;100.00
24558;BME280;12726;49.148;8.582;2023-01-31T01:24:22;101417.06;;;2.74;100.00
24558;BME280;12726;49.148;8.582;2023-01-31T01:27:07;101412.59;;;2.75;100.00
24558;BME280;12726;49.148;8.582;2023-01-31T01:29:53;101417.19;;;2.73;100.00
24558;BME280;12726;49.148;8.582;2023-01-31T01:32:39;101421.97;;;2.79;100.00
24558;BME280;12726;49.148;8.582;2023-01-31T01:35:25;101428.25;;;2.78;100.00
24558;BME280;12726;49.148;8.582;2023-01-31T01:38:10;101418.88;;;2.74;100.00
24558;BME280;12726;49.148;8.582;2023-01-31T01:40:56;101419.31;;;2.69;100.00
24558;BME280;12726;49.148;8.582;2023-01-31T01:43:43;101420.53;;;2.65;100.00
24558;BME280;12726;49.148;8.582;2023-01-31T01:46:32;101430.78;;;2.70;100.00
24558;BME280;12726;49.148;8.582;2023-01-31T01:49:30;101419.69;;;2.65;100.00
24558;BME280;12726;49.148;8.582;2023-01-31T01:52:17;101429.78;;;2.61;100.00
24558;BME280;12726;49.148;8.582;2023-01-31T01:55:09;101427.25;;;2.60;100.00
24558;BME280;12726;49.148;8.582;2023-01-31T01:58:03;101432.28;;;2.53;100.00
24558;BME280;12726;49.148;8.582;2023-01-31T02:00:50;101432.41;;;2.52;100.00
24558;BME280;12726;49.148;8.582;2023-01-31T02:03:36;101435.31;;;2.49;100.00
24558;BME280;12726;49.148;8.582;2023-01-31T02:06:23;101434.50;;;2.48;100.00
24558;BME280;12726;49.148;8.582;2023-01-31T02:09:15;101445.13;;;2.48;100.00
24558;BME280;12726;49.148;8.582;2023-01-31T02:12:04;101446.22;;;2.46;100.00
24558;BME280;12726;49.148;8.582;2023-01-31T02:14:49;101440.75;;;2.38;100.00
24558;BME280;12726;49.148;8.582;2023-01-31T02:17:37;101442.31;;;2.40;100.00
24558;BME280;12726;49.148;8.582;2023-01-31T02:21:04;101444.97;;;2.40;100.00
24558;BME280;12726;49.148;8.582;2023-01-31T02:24:28;101448.00;;;2.35;100.00
24558;BME280;12726;49.148;8.582;2023-01-31T02:27:32;101450.63;;;2.26;100.00
24558;BME280;12726;49.148;8.582;2023-01-31T02:30:36;101457.34;;;2.30;100.00
24558;BME280;12726;49.148;8.582;2023-01-31T02:33:35;101462.94;;;2.27;100.00
24558;BME280;12726;49.148;8.582;2023-01-31T02:36:29;101459.44;;;2.26;100.00
24558;BME280;12726;49.148;8.582;2023-01-31T02:39:26;101456.22;;;2.23;100.00
24558;BME280;12726;49.148;8.582;2023-01-31T02:42:15;101446.38;;;2.14;100.00
24558;BME280;12726;49.148;8.582;2023-01-31T02:45:08;101456.50;;;2.20;100.00
24558;BME280;12726;49.148;8.582;2023-01-31T02:48:06;101455.19;;;2.14;100.00
24558;BME280;12726;49.148;8.582;2023-01-31T02:50:59;101445.53;;;2.13;100.00
24558;BME280;12726;49.148;8.582;2023-01-31T02:53:51;101444.84;;;2.11;100.00
24558;BME280;12726;49.148;8.582;2023-01-31T02:56:40;101439.66;;;2.10;100.00
24558;BME280;12726;49.148;8.582;2023-01-31T02:59:26;101438.25;;;2.06;100.00
24558;BME280;12726;49.148;8.582;2023-01-31T03:02:14;101448.88;;;2.06;100.00
24558;BME280;12726;49.148;8.582;2023-01-31T03:05:03;101435.13;;;2.01;100.00
24558;BME280;12726;49.148;8.582;2023-01-31T03:07:52;101438.31;;;1.94;100.00
24558;BME280;12726;49.148;8.582;2023-01-31T03:10:50;101434.50;;;1.87;100.00
24558;BME280;12726;49.148;8.582;2023-01-31T03:13:47;101437.94;;;1.78;100.00
24558;BME280;12726;49.148;8.582;2023-01-31T03:16:42;101445.06;;;1.78;100.00
24558;BME280;12726;49.148;8.582;2023-01-31T03:19:57;101446.09;;;1.66;100.00
24558;BME280;12726;49.148;8.582;2023-01-31T03:22:45;101444.69;;;1.62;100.00
24558;BME280;12726;49.148;8.582;2023-01-31T03:25:34;101437.69;;;1.61;100.00
24558;BME280;12726;49.148;8.582;2023-01-31T03:28:26;101444.81;;;1.60;100.00
24558;BME280;12726;49.148;8.582;2023-01-31T03:31:15;101447.13;;;1.53;100.00
24558;BME280;12726;49.148;8.582;2023-01-31T03:34:04;101457.31;;;1.48;100.00
24558;BME280;12726;49.148;8.582;2023-01-31T03:36:55;101453.31;;;1.43;100.00
24558;BME280;12726;49.148;8.582;2023-01-31T03:39:45;101459.22;;;1.26;100.00
24558;BME280;12726;49.148;8.582;2023-01-31T03:42:41;101456.81;;;1.23;100.00
24558;BME280;12726;49.148;8.582;2023-01-31T03:45:33;101474.78;;;1.19;100.00
24558;BME280;12726;49.148;8.582;2023-01-31T03:48:26;101487.50;;;1.04;100.00
24558;BME280;12726;49.148;8.582;2023-01-31T03:51:17;101478.69;;;1.04;100.00
24558;BME280;12726;49.148;8.582;2023-01-31T03:54:06;101480.88;;;0.99;100.00
24558;BME280;12726;49.148;8.582;2023-01-31T03:56:56;101482.69;;;0.98;100.00
24558;BME280;12726;49.148;8.582;2023-01-31T03:59:46;101482.47;;;0.90;100.00
24558;BME280;12726;49.148;8.582;2023-01-31T04:02:37;101481.25;;;0.94;100.00
24558;BME280;12726;49.148;8.582;2023-01-31T04:05:23;101472.81;;;0.89;100.00
24558;BME280;12726;49.148;8.582;2023-01-31T04:08:14;101482.00;;;0.85;100.00
24558;BME280;12726;49.148;8.582;2023-01-31T04:10:59;101477.41;;;0.87;100.00
24558;BME280;12726;49.148;8.582;2023-01-31T04:13:47;101481.75;;;0.88;100.00
24558;BME280;12726;49.148;8.582;2023-01-31T04:16:33;101488.63;;;0.91;100.00
24558;BME280;12726;49.148;8.582;2023-01-31T04:19:19;101492.22;;;0.78;100.00
24558;BME280;12726;49.148;8.582;2023-01-31T04:22:04;101482.81;;;0.86;100.00
24558;BME280;12726;49.148;8.582;2023-01-31T04:24:50;101484.88;;;0.82;100.00
24558;BME280;12726;49.148;8.582;2023-01-31T04:27:35;101484.16;;;0.91;100.00
24558;BME280;12726;49.148;8.582;2023-01-31T04:30:20;101466.19;;;0.95;100.00
24558;BME280;12726;49.148;8.582;2023-01-31T04:33:07;101477.75;;;0.94;100.00
24558;BME280;12726;49.148;8.582;2023-01-31T04:35:52;101479.81;;;0.90;100.00
24558;BME280;12726;49.148;8.582;2023-01-31T04:38:38;101476.09;;;0.82;100.00
24558;BME280;12726;49.148;8.582;2023-01-31T04:41:23;101469.94;;;0.81;100.00
24558;BME280;12726;49.148;8.582;2023-01-31T04:44:08;101464.03;;;0.89;100.00
24558;BME280;12726;49.148;8.582;2023-01-31T04:46:57;101469.44;;;0.98;100.00
24558;BME280;12726;49.148;8.582;2023-01-31T04:49:44;101471.25;;;0.98;100.00
24558;BME280;12726;49.148;8.582;2023-01-31T04:52:29;101477.97;;;1.02;100.00
24558;BME280;12726;49.148;8.582;2023-01-31T04:55:14;101483.88;;;0.94;100.00
24558;BME280;12726;49.148;8.582;2023-01-31T04:58:00;101477.88;;;0.92;100.00
24558;BME280;12726;49.148;8.582;2023-01-31T05:00:45;101481.34;;;0.93;100.00
24558;BME280;12726;49.148;8.582;2023-01-31T05:03:33;101483.66;;;0.86;100.00
24558;BME280;12726;49.148;8.582;2023-01-31T05:06:20;101482.97;;;0.84;100.00
24558;BME280;12726;49.148;8.582;2023-01-31T05:09:05;101473.56;;;0.80;100.00
24558;BME280;12726;49.148;8.582;2023-01-31T05:11:50;101470.56;;;0.73;100.00
24558;BME280;12726;49.148;8.582;2023-01-31T05:14:36;101463.81;;;0.81;100.00
24558;BME280;12726;49.148;8.582;2023-01-31T05:17:21;101458.75;;;0.77;100.00
24558;BME280;12726;49.148;8.582;2023-01-31T05:20:12;101453.47;;;0.77;100.00
24558;BME280;12726;49.148;8.582;2023-01-31T05:22:59;101458.75;;;0.77;100.00
24558;BME280;12726;49.148;8.582;2023-01-31T05:25:47;101465.38;;;0.72;100.00
24558;BME280;12726;49.148;8.582;2023-01-31T05:28:33;101471.66;;;0.71;100.00
24558;BME280;12726;49.148;8.582;2023-01-31T05:31:18;101464.78;;;0.68;100.00
24558;BME280;12726;49.148;8.582;2023-01-31T05:34:06;101463.94;;;0.68;100.00
24558;BME280;12726;49.148;8.582;2023-01-31T05:36:53;101446.97;;;0.70;100.00
24558;BME280;12726;49.148;8.582;2023-01-31T05:39:40;101458.53;;;0.69;100.00
24558;BME280;12726;49.148;8.582;2023-01-31T05:42:25;101466.22;;;0.72;100.00
24558;BME280;12726;49.148;8.582;2023-01-31T05:45:11;101464.53;;;0.71;100.00
24558;BME280;12726;49.148;8.582;2023-01-31T05:48:00;101453.22;;;0.69;100.00
24558;BME280;12726;49.148;8.582;2023-01-31T05:50:47;101457.69;;;0.69;100.00
24558;BME280;12726;49.148;8.582;2023-01-31T05:53:32;101467.19;;;0.71;100.00
24558;BME280;12726;49.148;8.582;2023-01-31T05:56:19;101471.78;;;0.69;100.00
24558;BME280;12726;49.148;8.582;2023-01-31T05:59:04;101478.88;;;0.69;100.00
24558;BME280;12726;49.148;8.582;2023-01-31T06:01:50;101485.53;;;0.63;100.00
24558;BME280;12726;49.148;8.582;2023-01-31T06:04:35;101487.81;;;0.68;100.00
24558;BME280;12726;49.148;8.582;2023-01-31T06:07:21;101485.16;;;0.68;100.00
24558;BME280;12726;49.148;8.582;2023-01-31T06:10:08;101480.94;;;0.65;100.00
24558;BME280;12726;49.148;8.582;2023-01-31T06:12:55;101485.16;;;0.68;100.00
24558;BME280;12726;49.148;8.582;2023-01-31T06:15:41;101487.91;;;0.66;100.00
24558;BME280;12726;49.148;8.582;2023-01-31T06:18:27;101486.59;;;0.61;100.00
24558;BME280;12726;49.148;8.582;2023-01-31T06:21:12;101477.31;;;0.66;100.00
24558;BME280;12726;49.148;8.582;2023-01-31T06:23:59;101477.94;;;0.70;100.00
24558;BME280;12726;49.148;8.582;2023-01-31T06:26:44;101476.00;;;0.61;100.00
24558;BME280;12726;49.148;8.582;2023-01-31T06:29:31;101489.84;;;0.75;100.00
24558;BME280;12726;49.148;8.582;2023-01-31T06:32:16;101491.41;;;0.78;100.00
24558;BME280;12726;49.148;8.582;2023-01-31T06:35:03;101503.44;;;0.82;100.00
24558;BME280;12726;49.148;8.582;2023-01-31T06:37:48;101502.81;;;0.90;100.00
24558;BME280;12726;49.148;8.582;2023-01-31T06:40:34;101508.72;;;0.93;100.00
24558;BME280;12726;49.148;8.582;2023-01-31T06:43:19;101509.91;;;1.00;100.00
24558;BME280;12726;49.148;8.582;2023-01-31T06:46:06;101515.34;;;0.99;100.00
24558;BME280;12726;49.148;8.582;2023-01-31T06:48:51;101513.41;;;1.01;100.00
24558;BME280;12726;49.148;8.582;2023-01-31T06:51:37;101516.91;;;1.01;100.00
24558;BME280;12726;49.148;8.582;2023-01-31T06:54:22;101515.94;;;1.02;100.00
24558;BME280;12726;49.148;8.582;2023-01-31T06:57:07;101524.34;;;1.07;100.00
24558;BME280;12726;49.148;8.582;2023-01-31T06:59:53;101525.94;;;1.10;100.00
24558;BME280;12726;49.148;8.582;2023-01-31T07:02:40;101527.34;;;1.14;100.00
24558;BME280;12726;49.148;8.582;2023-01-31T07:05:25;101524.34;;;1.18;100.00
24558;BME280;12726;49.148;8.582;2023-01-31T07:08:11;101522.88;;;1.26;100.00
24558;BME280;12726;49.148;8.582;2023-01-31T07:10:57;101515.66;;;1.28;100.00
24558;BME280;12726;49.148;8.582;2023-01-31T07:13:44;101517.06;;;1.32;100.00
24558;BME280;12726;49.148;8.582;2023-01-31T07:16:33;101512.09;;;1.38;100.00
24558;BME280;12726;49.148;8.582;2023-01-31T07:19:22;101517.00;;;1.43;100.00
24558;BME280;12726;49.148;8.582;2023-01-31T07:22:07;101506.72;;;1.49;100.00
24558;BME280;12726;49.148;8.582;2023-01-31T07:24:53;101519.53;;;1.55;100.00
24558;BME280;12726;49.148;8.582;2023-01-31T07:27:38;101526.00;;;1.63;100.00
24558;BME280;12726;49.148;8.582;2023-01-31T07:30:23;101521.16;;;1.68;100.00
24558;BME280;12726;49.148;8.582;2023-01-31T07:33:09;101526.34;;;1.69;100.00
24558;BME280;12726;49.148;8.582;2023-01-31T07:36:00;101535.59;;;1.75;100.00
24558;BME280;12726;49.148;8.582;2023-01-31T07:38:45;101523.59;;;1.80;100.00
24558;BME280;12726;49.148;8.582;2023-01-31T07:41:30;101531.66;;;1.90;100.00
24558;BME280;12726;49.148;8.582;2023-01-31T07:44:16;101532.50;;;1.90;100.00
24558;BME280;12726;49.148;8.582;2023-01-31T07:47:01;101532.09;;;1.95;100.00
24558;BME280;12726;49.148;8.582;2023-01-31T07:49:46;101521.47;;;1.95;100.00
24558;BME280;12726;49.148;8.582;2023-01-31T07:52:34;101536.69;;;1.93;100.00
24558;BME280;12726;49.148;8.582;2023-01-31T07:55:19;101538.50;;;1.92;100.00
24558;BME280;12726;49.148;8.582;2023-01-31T07:58:05;101532.50;;;1.90;100.00
24558;BME280;12726;49.148;8.582;2023-01-31T08:00:52;101525.38;;;1.91;100.00
24558;BME280;12726;49.148;8.582;2023-01-31T08:03:56;101523.09;;;1.86;100.00
24558;BME280;12726;49.148;8.582;2023-01-31T08:06:43;101514.06;;;1.78;100.00
24558;BME280;12726;49.148;8.582;2023-01-31T08:09:30;101527.63;;;1.75;100.00
24558;BME280;12726;49.148;8.582;2023-01-31T08:12:15;101541.75;;;1.75;100.00
24558;BME280;12726;49.148;8.582;2023-01-31T08:15:01;101534.03;;;1.72;100.00
24558;BME280;12726;49.148;8.582;2023-01-31T08:17:46;101522.19;;;1.76;100.00
24558;BME280;12726;49.148;8.582;2023-01-31T08:20:31;101533.34;;;1.91;100.00
24558;BME280;12726;49.148;8.582;2023-01-31T08:23:17;101523.47;;;2.03;100.00
24558;BME280;12726;49.148;8.582;2023-01-31T08:26:05;101524.53;;;2.11;100.00
24558;BME280;12726;49.148;8.582;2023-01-31T08:28:52;101522.56;;;2.13;100.00
24558;BME280;12726;49.148;8.582;2023-01-31T08:31:39;101528.06;;;2.21;100.00
24558;BME280;12726;49.148;8.582;2023-01-31T08:34:24;101525.63;;;2.09;100.00
24558;BME280;12726;49.148;8.582;2023-01-31T08:37:10;101522.97;;;2.09;100.00
24558;BME280;12726;49.148;8.582;2023-01-31T08:39:55;101530.69;;;2.12;100.00
24558;BME280;12726;49.148;8.582;2023-01-31T08:42:42;101527.94;;;2.23;100.00
24558;BME280;12726;49.148;8.582;2023-01-31T08:45:29;101545.03;;;2.30;100.00
24558;BME280;12726;49.148;8.582;2023-01-31T08:48:14;101556.09;;;2.35;100.00
24558;BME280;12726;49.148;8.582;2023-01-31T08:51:00;101538.34;;;2.35;100.00
24558;BME280;12726;49.148;8.582;2023-01-31T08:53:46;101540.47;;;2.62;100.00
24558;BME280;12726;49.148;8.582;2023-01-31T08:56:32;101537.22;;;2.99;100.00
24558;BME280;12726;49.148;8.582;2023-01-31T08:59:19;101524.22;;;3.15;97.37
24558;BME280;12726;49.148;8.582;2023-01-31T09:02:04;101522.28;;;3.17;96.04
24558;BME280;12726;49.148;8.582;2023-01-31T09:04:50;101523.38;;;3.14;95.90
24558;BME280;12726;49.148;8.582;2023-01-31T09:07:35;101513.16;;;3.10;96.37
24558;BME280;12726;49.148;8.582;2023-01-31T09:10:21;101518.06;;;3.05;95.99
24558;BME280;12726;49.148;8.582;2023-01-31T09:13:07;101515.00;;;3.09;96.10
24558;BME280;12726;49.148;8.582;2023-01-31T09:15:58;101507.94;;;2.99;95.80
24558;BME280;12726;49.148;8.582;2023-01-31T09:18:44;101529.34;;;2.88;96.55
24558;BME280;12726;49.148;8.582;2023-01-31T09:21:29;101527.91;;;2.74;96.72
24558;BME280;12726;49.148;8.582;2023-01-31T09:24:15;101531.09;;;2.68;97.26
24558;BME280;12726;49.148;8.582;2023-01-31T09:27:00;101533.75;;;2.68;97.51
24558;BME280;12726;49.148;8.582;2023-01-31T09:29:49;101523.84;;;2.80;98.14
24558;BME280;12726;49.148;8.582;2023-01-31T09:32:36;101519.81;;;2.85;97.17
24558;BME280;12726;49.148;8.582;2023-01-31T09:35:21;101520.41;;;2.89;97.02
24558;BME280;12726;49.148;8.582;2023-01-31T09:38:07;101526.28;;;2.92;96.36
24558;BME280;12726;49.148;8.582;2023-01-31T09:40:53;101524.44;;;2.83;96.00
24558;BME280;12726;49.148;8.582;2023-01-31T09:43:42;101531.84;;;2.80;96.77
24558;BME280;12726;49.148;8.582;2023-01-31T09:46:34;101542.94;;;2.94;96.58
24558;BME280;12726;49.148;8.582;2023-01-31T09:49:24;101541.91;;;3.26;95.31
24558;BME280;12726;49.148;8.582;2023-01-31T09:52:11;101539.69;;;3.60;92.42
24558;BME280;12726;49.148;8.582;2023-01-31T09:54:57;101539.28;;;3.83;90.92
24558;BME280;12726;49.148;8.582;2023-01-31T09:57:47;101535.84;;;4.66;85.45
24558;BME280;12726;49.148;8.582;2023-01-31T10:00:38;101539.03;;;4.80;84.29
24558;BME280;12726;49.148;8.582;2023-01-31T10:03:45;101518.75;;;4.22;86.56
24558;BME280;12726;49.148;8.582;2023-01-31T10:06:36;101519.53;;;3.76;89.43
24558;BME280;12726;49.148;8.582;2023-01-31T10:09:29;101516.00;;;3.57;89.89
24558;BME280;12726;49.148;8.582;2023-01-31T10:12:19;101521.50;;;3.55;91.15
24558;BME280;12726;49.148;8.582;2023-01-31T10:15:13;101513.34;;;3.76;90.44
24558;BME280;12726;49.148;8.582;2023-01-31T10:18:05;101508.56;;;3.79;89.84
24558;BME280;12726;49.148;8.582;2023-01-31T10:20:55;101500.19;;;4.67;86.12
24558;BME280;12726;49.148;8.582;2023-01-31T10:23:47;101505.78;;;5.19;83.32
24558;BME280;12726;49.148;8.582;2023-01-31T10:26:36;101517.09;;;4.86;83.55
24558;BME280;12726;49.148;8.582;2023-01-31T10:29:28;101506.44;;;4.76;85.12
24558;BME280;12726;49.148;8.582;2023-01-31T10:32:20;101500.00;;;6.20;79.08
24558;BME280;12726;49.148;8.582;2023-01-31T10:35:14;101525.31;;;7.84;69.95
24558;BME280;12726;49.148;8.582;2023-01-31T10:38:05;101516.53;;;8.63;66.50
24558;BME280;12726;49.148;8.582;2023-01-31T10:41:00;101513.56;;;8.89;64.58
24558;BME280;12726;49.148;8.582;2023-01-31T10:43:55;101509.91;;;8.03;67.62
24558;BME280;12726;49.148;8.582;2023-01-31T10:46:43;101497.19;;;8.76;64.94
24558;BME280;12726;49.148;8.582;2023-01-31T10:49:29;101490.06;;;10.28;59.07
24558;BME280;12726;49.148;8.582;2023-01-31T10:52:24;101482.69;;;11.31;56.59
24558;BME280;12726;49.148;8.582;2023-01-31T10:55:30;101469.56;;;10.56;56.47
24558;BME280;12726;49.148;8.582;2023-01-31T10:58:21;101459.69;;;8.91;61.52
24558;BME280;12726;49.148;8.582;2023-01-31T11:01:08;101456.94;;;7.32;67.50
24558;BME280;12726;49.148;8.582;2023-01-31T11:03:55;101467.53;;;6.41;73.25
24558;BME280;12726;49.148;8.582;2023-01-31T11:06:41;101445.63;;;6.04;74.57
24558;BME280;12726;49.148;8.582;2023-01-31T11:09:29;101449.56;;;5.56;77.71
24558;BME280;12726;49.148;8.582;2023-01-31T11:12:16;101458.88;;;5.34;78.94
24558;BME280;12726;49.148;8.582;2023-01-31T11:15:13;101454.16;;;5.10;80.09
24558;BME280;12726;49.148;8.582;2023-01-31T11:17:59;101456.56;;;4.86;82.10
24558;BME280;12726;49.148;8.582;2023-01-31T11:20:46;101455.56;;;4.87;82.40
24558;BME280;12726;49.148;8.582;2023-01-31T11:23:36;101451.47;;;4.93;82.55
24558;BME280;12726;49.148;8.582;2023-01-31T11:26:27;101443.59;;;4.73;81.96
24558;BME280;12726;49.148;8.582;2023-01-31T11:29:18;101441.47;;;4.50;82.40
24558;BME280;12726;49.148;8.582;2023-01-31T11:32:15;101452.56;;;4.45;82.84
24558;BME280;12726;49.148;8.582;2023-01-31T11:35:04;101445.41;;;4.46;83.21
24558;BME280;12726;49.148;8.582;2023-01-31T11:37:52;101437.31;;;4.65;83.73
24558;BME280;12726;49.148;8.582;2023-01-31T11:40:38;101416.69;;;4.85;82.02
24558;BME280;12726;49.148;8.582;2023-01-31T11:43:25;101388.03;;;4.87;81.46
24558;BME280;12726;49.148;8.582;2023-01-31T11:46:13;101387.66;;;4.82;80.84
24558;BME280;12726;49.148;8.582;2023-01-31T11:49:09;101387.94;;;4.79;80.73
24558;BME280;12726;49.148;8.582;2023-01-31T11:51:57;101400.44;;;4.78;81.01
24558;BME280;12726;49.148;8.582;2023-01-31T11:54:46;101382.28;;;4.64;80.76
24558;BME280;12726;49.148;8.582;2023-01-31T11:57:35;101378.63;;;4.47;81.34
24558;BME280;12726;49.148;8.582;2023-01-31T12:00:23;101364.53;;;4.27;82.31
24558;BME280;12726;49.148;8.582;2023-01-31T12:03:14;101371.34;;;4.12;82.60
24558;BME280;12726;49.148;8.582;2023-01-31T12:06:04;101378.25;;;4.05;83.33
24558;BME280;12726;49.148;8.582;2023-01-31T12:08:52;101387.41;;;3.93;83.67
24558;BME280;12726;49.148;8.582;2023-01-31T12:11:49;101380.00;;;3.87;84.09
24558;BME280;12726;49.148;8.582;2023-01-31T12:14:38;101366.28;;;3.82;84.39
24558;BME280;12726;49.148;8.582;2023-01-31T12:17:23;101346.94;;;3.80;84.94
24558;BME280;12726;49.148;8.582;2023-01-31T12:20:18;101343.75;;;3.76;85.08
24558;BME280;12726;49.148;8.582;2023-01-31T12:23:15;101343.56;;;3.78;85.58
24558;BME280;12726;49.148;8.582;2023-01-31T12:26:08;101348.19;;;3.85;85.79
24558;BME280;12726;49.148;8.582;2023-01-31T12:29:07;101350.56;;;3.88;85.49
24558;BME280;12726;49.148;8.582;2023-01-31T12:32:15;101338.59;;;4.02;84.46
24558;BME280;12726;49.148;8.582;2023-01-31T12:35:25;101328.63;;;4.04;84.00
24558;BME280;12726;49.148;8.582;2023-01-31T12:38:26;101309.13;;;4.04;84.05
24558;BME280;12726;49.148;8.582;2023-01-31T12:41:18;101303.09;;;4.02;84.45
24558;BME280;12726;49.148;8.582;2023-01-31T12:44:27;101309.81;;;4.06;83.96
24558;BME280;12726;49.148;8.582;2023-01-31T12:47:25;101308.91;;;4.15;84.30
24558;BME280;12726;49.148;8.582;2023-01-31T12:50:27;101296.19;;;4.09;83.77
24558;BME280;12726;49.148;8.582;2023-01-31T12:53:37;101287.34;;;4.08;84.17
24558;BME280;12726;49.148;8.582;2023-01-31T12:56:45;101296.72;;;4.12;84.29
24558;BME280;12726;49.148;8.582;2023-01-31T12:59:44;101289.75;;;4.11;83.86
24558;BME280;12726;49.148;8.582;2023-01-31T13:02:39;101298.03;;;4.08;83.32
24558;BME280;12726;49.148;8.582;2023-01-31T13:05:30;101292.09;;;4.14;83.36
24558;BME280;12726;49.148;8.582;2023-01-31T13:08:22;101278.47;;;4.17;82.76
24558;BME280;12726;49.148;8.582;2023-01-31T13:11:12;101295.97;;;4.20;82.77
24558;BME280;12726;49.148;8.582;2023-01-31T13:14:01;101308.56;;;4.27;82.37
24558;BME280;12726;49.148;8.582;2023-01-31T13:16:50;101281.38;;;4.24;82.80
24558;BME280;12726;49.148;8.582;2023-01-31T13:19:40;101272.41;;;4.25;82.89
24558;BME280;12726;49.148;8.582;2023-01-31T13:22:30;101277.03;;;4.23;82.24
24558;BME280;12726;49.148;8.582;2023-01-31T13:25:21;101268.19;;;4.22;82.03
24558;BME280;12726;49.148;8.582;2023-01-31T13:28:13;101276.56;;;4.27;82.05
24558;BME280;12726;49.148;8.582;2023-01-31T13:31:03;101271.56;;;4.24;81.94
24558;BME280;12726;49.148;8.582;2023-01-31T13:33:51;101288.47;;;4.33;82.04
24558;BME280;12726;49.148;8.582;2023-01-31T13:36:43;101277.28;;;4.29;81.66
24558;BME280;12726;49.148;8.582;2023-01-31T13:39:34;101255.09;;;4.29;81.80
24558;BME280;12726;49.148;8.582;2023-01-31T13:42:21;101247.25;;;4.27;81.52
24558;BME280;12726;49.148;8.582;2023-01-31T13:45:08;101240.09;;;4.28;82.05
24558;BME280;12726;49.148;8.582;2023-01-31T13:47:58;101234.38;;;4.23;81.87
24558;BME280;12726;49.148;8.582;2023-01-31T13:50:50;101236.22;;;4.22;82.48
24558;BME280;12726;49.148;8.582;2023-01-31T13:53:43;101228.38;;;4.21;82.25
24558;BME280;12726;49.148;8.582;2023-01-31T13:56:32;101221.53;;;4.18;82.88
24558;BME280;12726;49.148;8.582;2023-01-31T13:59:21;101207.03;;;4.21;83.18
24558;BME280;12726;49.148;8.582;2023-01-31T14:02:17;101180.38;;;4.21;82.83
24558;BME280;12726;49.148;8.582;2023-01-31T14:05:06;101175.47;;;4.26;83.28
24558;BME280;12726;49.148;8.582;2023-01-31T14:11:31;101183.97;;;4.47;81.88
24558;BME280;12726;49.148;8.582;2023-01-31T14:14:31;101181.22;;;4.57;81.90
24558;BME280;12726;49.148;8.582;2023-01-31T14:20:40;101199.34;;;4.53;81.55
24558;BME280;12726;49.148;8.582;2023-01-31T14:23:30;101194.88;;;4.54;81.76
24558;BME280;12726;49.148;8.582;2023-01-31T14:26:32;101221.81;;;4.51;81.79
24558;BME280;12726;49.148;8.582;2023-01-31T14:29:24;101215.34;;;4.53;82.17
24558;BME280;12726;49.148;8.582;2023-01-31T14:32:14;101189.22;;;4.57;81.74
24558;BME280;12726;49.148;8.582;2023-01-31T14:35:08;101189.75;;;4.60;81.61
24558;BME280;12726;49.148;8.582;2023-01-31T14:38:10;101198.97;;;4.66;81.77
24558;BME280;12726;49.148;8.582;2023-01-31T14:41:06;101186.47;;;4.66;82.32
24558;BME280;12726;49.148;8.582;2023-01-31T14:44:03;101193.00;;;4.72;82.06
24558;BME280;12726;49.148;8.582;2023-01-31T14:47:13;101186.34;;;4.76;82.48
24558;BME280;12726;49.148;8.582;2023-01-31T14:53:34;101188.78;;;4.69;82.69
24558;BME280;12726;49.148;8.582;2023-01-31T14:56:37;101193.28;;;4.69;83.42
24558;BME280;12726;49.148;8.582;2023-01-31T14:59:32;101181.84;;;4.77;82.86